Time;durP1;ratioP1;P1;durP2;ratioP2;P2;SDS_P1;SDS_P2;PMS_P1;PMS_P2;Temp;Humidity;BMP_temperature;BMP_pressure;BME280_temperature;BME280_humidity;BME280_pressure;Samples;Min_cycle;Max_cycle;Signal;HPM_P1;HPM_P2
2022/02/13 00:01:43;;;;;;;4.75;3.58;;;2.50;99.30;;;;;;5035036;28;20226;-65
2022/02/13 00:04:13;;;;;;;6.30;3.95;;;2.50;99.20;;;;;;5033867;28;20202;-65
2022/02/13 00:06:40;;;;;;;5.78;4.05;;;2.40;99.40;;;;;;5034440;28;20650;-64
2022/02/13 00:09:07;;;;;;;6.70;3.70;;;2.40;99.50;;;;;;5033714;28;20210;-66
2022/02/13 00:11:34;;;;;;;5.45;3.83;;;2.40;99.50;;;;;;5033424;28;20253;-65
2022/02/13 00:14:01;;;;;;;5.75;4.45;;;2.40;99.50;;;;;;5033219;28;20698;-66
2022/02/13 00:16:28;;;;;;;5.05;4.15;;;2.30;99.50;;;;;;5033439;28;20199;-65
2022/02/13 00:18:55;;;;;;;5.47;4.20;;;2.30;99.70;;;;;;5033801;28;20206;-65
2022/02/13 00:21:24;;;;;;;7.63;3.92;;;2.20;99.80;;;;;;5033503;28;20658;-65
2022/02/13 00:23:51;;;;;;;5.68;4.32;;;2.10;99.90;;;;;;5033502;28;20207;-65
2022/02/13 00:26:18;;;;;;;5.82;4.10;;;2.10;99.90;;;;;;5038098;28;20206;-65
2022/02/13 00:28:45;;;;;;;8.82;5.45;;;2.10;99.90;;;;;;5037970;28;20205;-65
2022/02/13 00:31:12;;;;;;;6.97;4.50;;;2.00;99.90;;;;;;5037886;28;20226;-65
2022/02/13 00:33:39;;;;;;;5.03;4.13;;;2.00;99.90;;;;;;5038440;28;20233;-66
2022/02/13 00:36:07;;;;;;;6.95;4.53;;;2.00;99.90;;;;;;5037288;28;20565;-65
2022/02/13 00:38:35;;;;;;;4.45;4.05;;;2.00;99.90;;;;;;5037127;28;20229;-65
2022/02/13 00:41:02;;;;;;;6.07;4.05;;;2.00;99.90;;;;;;5037714;28;20202;-65
2022/02/13 00:43:29;;;;;;;4.40;3.97;;;2.00;99.90;;;;;;5038212;28;20202;-65
2022/02/13 00:45:56;;;;;;;8.65;4.57;;;2.00;99.90;;;;;;5037971;28;20206;-65
2022/02/13 00:48:23;;;;;;;7.20;4.22;;;2.00;99.90;;;;;;5037465;28;20305;-65
2022/02/13 00:50:51;;;;;;;4.95;4.30;;;2.00;99.90;;;;;;5036929;28;20694;-65
2022/02/13 00:53:18;;;;;;;5.38;4.55;;;2.00;99.90;;;;;;5037164;28;20199;-65
2022/02/13 00:55:46;;;;;;;9.00;5.60;;;1.90;99.90;;;;;;5036944;28;20702;-65
2022/02/13 00:58:13;;;;;;;5.82;3.80;;;1.90;99.90;;;;;;5036756;28;20205;-66
2022/02/13 01:00:40;;;;;;;6.35;4.40;;;1.90;99.90;;;;;;5036816;28;20214;-66
2022/02/13 01:03:07;;;;;;;6.53;4.45;;;1.90;99.90;;;;;;5036655;28;20222;-65
2022/02/13 01:05:34;;;;;;;4.90;4.15;;;1.90;99.90;;;;;;5036794;28;20209;-64
2022/02/13 01:08:01;;;;;;;5.28;3.67;;;1.90;99.90;;;;;;5036590;28;20206;-65
2022/02/13 01:10:31;;;;;;;4.70;4.15;;;1.90;99.90;;;;;;5036495;28;20205;-65
2022/02/13 01:13:01;;;;;;;6.93;4.45;;;1.90;99.90;;;;;;5036439;28;20309;-64
2022/02/13 01:15:28;;;;;;;4.72;4.00;;;1.90;99.90;;;;;;5036479;28;20233;-64
2022/02/13 01:17:55;;;;;;;8.73;4.47;;;1.80;99.90;;;;;;5036802;28;20203;-65
2022/02/13 01:20:23;;;;;;;5.43;4.57;;;1.80;99.90;;;;;;5036208;28;20203;-65
2022/02/13 01:22:50;;;;;;;6.00;3.95;;;1.80;99.90;;;;;;5037566;28;20233;-66
2022/02/13 01:25:17;;;;;;;4.90;3.75;;;1.80;99.90;;;;;;5039284;28;20205;-65
2022/02/13 01:27:44;;;;;;;5.78;3.90;;;1.80;99.90;;;;;;5040779;28;20206;-65
2022/02/13 01:30:13;;;;;;;5.25;3.38;;;1.80;99.90;;;;;;5037576;28;20715;-65
2022/02/13 01:32:40;;;;;;;6.10;4.35;;;1.80;99.90;;;;;;5035878;28;20241;-66
2022/02/13 01:35:09;;;;;;;6.47;3.80;;;1.90;99.90;;;;;;5036058;28;20222;-66
2022/02/13 01:37:36;;;;;;;6.47;4.38;;;1.90;99.90;;;;;;5034991;28;20206;-66
2022/02/13 01:40:04;;;;;;;5.43;4.32;;;1.90;99.90;;;;;;5035942;28;20206;-65
2022/02/13 01:42:31;;;;;;;6.13;4.22;;;1.90;99.90;;;;;;5036525;28;20230;-65
2022/02/13 01:44:58;;;;;;;6.40;3.95;;;1.90;99.90;;;;;;5035816;28;20202;-66
2022/02/13 01:47:29;;;;;;;5.55;4.65;;;1.90;99.90;;;;;;5035820;28;20210;-65
2022/02/13 01:49:56;;;;;;;8.98;4.28;;;1.90;99.90;;;;;;5035623;28;20183;-63
2022/02/13 01:52:23;;;;;;;5.78;3.88;;;1.90;99.90;;;;;;5035390;28;20222;-63
2022/02/13 01:54:50;;;;;;;7.55;4.00;;;1.90;99.90;;;;;;5035631;28;20236;-65
2022/02/13 01:57:17;;;;;;;5.35;4.10;;;1.90;99.90;;;;;;5035693;28;20206;-65
2022/02/13 01:59:44;;;;;;;8.77;4.30;;;2.00;99.90;;;;;;5035246;28;20209;-64
2022/02/13 02:02:11;;;;;;;10.65;3.97;;;2.00;99.90;;;;;;5035449;28;20222;-64
2022/02/13 02:04:41;;;;;;;7.00;4.20;;;2.00;99.90;;;;;;5035398;28;20198;-64
2022/02/13 02:07:08;;;;;;;5.05;3.75;;;2.00;99.90;;;;;;5035406;28;20230;-64
2022/02/13 02:09:35;;;;;;;5.32;4.47;;;2.00;99.90;;;;;;5035059;28;20209;-65
2022/02/13 02:12:04;;;;;;;4.65;3.88;;;2.00;99.90;;;;;;5035193;28;20226;-65
2022/02/13 02:14:31;;;;;;;4.95;3.97;;;1.90;99.90;;;;;;5035119;28;20214;-65
2022/02/13 02:16:58;;;;;;;5.93;4.05;;;1.90;99.90;;;;;;5035316;28;20209;-66
2022/02/13 02:19:25;;;;;;;7.00;3.83;;;1.90;99.90;;;;;;5034863;28;20209;-65
2022/02/13 02:21:53;;;;;;;5.93;4.25;;;1.90;99.90;;;;;;5036587;28;20612;-65
2022/02/13 02:24:22;;;;;;;6.88;4.53;;;2.00;99.90;;;;;;5035420;28;20202;-65
2022/02/13 02:26:49;;;;;;;7.18;4.20;;;2.00;99.90;;;;;;5034796;28;20198;-64
2022/02/13 02:29:16;;;;;;;6.43;3.97;;;2.00;99.90;;;;;;5035347;28;20202;-65
2022/02/13 02:31:44;;;;;;;5.90;4.20;;;2.00;99.90;;;;;;5035101;28;20231;-66
2022/02/13 02:34:11;;;;;;;6.68;4.60;;;1.90;99.90;;;;;;5035314;28;20206;-65
2022/02/13 02:36:38;;;;;;;9.60;4.57;;;1.90;99.90;;;;;;5034871;28;20670;-64
2022/02/13 02:39:05;;;;;;;6.75;3.70;;;1.90;99.90;;;;;;5034432;28;20581;-66
2022/02/13 02:41:34;;;;;;;7.47;3.95;;;1.90;99.90;;;;;;5034654;28;20222;-66
2022/02/13 02:44:02;;;;;;;6.07;3.47;;;1.90;99.90;;;;;;5035004;28;20213;-66
2022/02/13 02:46:29;;;;;;;6.20;4.68;;;2.00;99.90;;;;;;5034620;28;20202;-64
2022/02/13 02:48:56;;;;;;;4.22;3.35;;;2.10;99.90;;;;;;5033954;28;20210;-65
2022/02/13 02:51:23;;;;;;;8.23;4.05;;;2.10;99.90;;;;;;5034512;28;20218;-65
2022/02/13 02:53:50;;;;;;;6.03;3.85;;;2.10;99.70;;;;;;5041064;28;20723;-65
2022/02/13 02:56:18;;;;;;;6.63;4.45;;;2.20;99.40;;;;;;5053447;28;20234;-65
2022/02/13 02:58:46;;;;;;;5.25;3.80;;;2.20;99.10;;;;;;5053879;28;20226;-66
2022/02/13 03:01:13;;;;;;;4.90;4.38;;;2.20;98.90;;;;;;5055333;28;20233;-65
2022/02/13 03:03:40;;;;;;;6.43;4.00;;;2.20;98.80;;;;;;5047457;28;20198;-64
2022/02/13 03:06:07;;;;;;;4.75;4.25;;;2.20;98.70;;;;;;5035185;28;20202;-63
2022/02/13 03:08:34;;;;;;;4.75;4.03;;;2.20;98.30;;;;;;5034875;28;20205;-64
2022/02/13 03:11:02;;;;;;;4.80;4.22;;;2.30;98.10;;;;;;5034480;28;20210;-64
2022/02/13 03:13:29;;;;;;;7.50;3.72;;;2.30;97.80;;;;;;5034154;28;20674;-66
2022/02/13 03:15:57;;;;;;;6.63;4.10;;;2.30;97.70;;;;;;5034314;28;20328;-66
2022/02/13 03:18:26;;;;;;;7.03;4.20;;;2.20;97.60;;;;;;5034121;28;20203;-66
2022/02/13 03:20:53;;;;;;;7.97;4.30;;;2.20;97.70;;;;;;5033798;28;20295;-65
2022/02/13 03:23:20;;;;;;;7.72;4.85;;;2.20;97.60;;;;;;5034086;28;20199;-66
2022/02/13 03:25:47;;;;;;;7.82;4.20;;;2.10;97.60;;;;;;5033678;28;20206;-66
2022/02/13 03:28:14;;;;;;;10.15;4.28;;;2.10;97.80;;;;;;5033734;28;20700;-65
2022/02/13 03:30:42;;;;;;;9.68;4.50;;;2.10;97.80;;;;;;5033688;28;20697;-65
2022/02/13 03:33:11;;;;;;;6.13;3.72;;;2.10;97.70;;;;;;5033615;28;20253;-64
2022/02/13 03:35:38;;;;;;;7.07;4.00;;;2.00;97.90;;;;;;5034015;28;20252;-65
2022/02/13 03:38:06;;;;;;;5.35;4.00;;;2.00;98.10;;;;;;5034459;28;20202;-65
2022/02/13 03:40:34;;;;;;;6.65;5.20;;;2.00;98.20;;;;;;5033996;28;20210;-65
2022/02/13 03:43:03;;;;;;;7.07;4.22;;;2.00;98.20;;;;;;5033679;28;20245;-64
2022/02/13 03:45:30;;;;;;;5.63;4.20;;;1.90;98.20;;;;;;5033662;28;20198;-66
2022/02/13 03:47:57;;;;;;;9.30;4.30;;;1.90;98.20;;;;;;5033491;28;20229;-65
2022/02/13 03:50:25;;;;;;;9.45;3.83;;;1.80;98.40;;;;;;5033691;28;20209;-64
2022/02/13 03:52:52;;;;;;;6.75;4.40;;;1.80;98.60;;;;;;5033246;28;20597;-65
2022/02/13 03:55:19;;;;;;;9.80;4.57;;;1.70;98.90;;;;;;5033117;28;20249;-64
2022/02/13 03:57:47;;;;;;;7.07;4.63;;;1.70;99.10;;;;;;5033949;28;20205;-64
2022/02/13 04:00:15;;;;;;;10.07;5.03;;;1.70;99.10;;;;;;5032791;28;20197;-65
2022/02/13 04:02:43;;;;;;;6.90;4.00;;;1.70;99.00;;;;;;5033394;28;20305;-64
2022/02/13 04:05:11;;;;;;;11.00;4.47;;;1.60;99.00;;;;;;5033894;28;20202;-65
2022/02/13 04:09:18;;;;;;;5.47;4.70;;;1.50;99.10;;;;;;5091368;27;20607;-65
2022/02/13 04:11:45;;;;;;;8.77;4.40;;;1.50;99.30;;;;;;5090552;28;20216;-65
2022/02/13 04:14:12;;;;;;;7.43;4.32;;;1.50;99.60;;;;;;5090747;28;20676;-65
2022/02/13 04:16:39;;;;;;;8.60;4.65;;;1.50;99.40;;;;;;5091412;28;20211;-64
2022/02/13 04:19:06;;;;;;;5.93;4.80;;;1.50;99.70;;;;;;5090898;28;20304;-66
2022/02/13 04:24:01;;;;;;;6.28;4.60;;;1.40;99.80;;;;;;5071173;22;20226;-64
2022/02/13 04:26:30;;;;;;;5.70;4.55;;;1.30;99.90;;;;;;5050816;28;20581;-63
2022/02/13 04:28:57;;;;;;;9.40;4.68;;;1.30;99.90;;;;;;5051681;28;20218;-64
2022/02/13 04:31:24;;;;;;;6.93;5.03;;;1.20;99.90;;;;;;5051925;28;20205;-63
2022/02/13 04:33:51;;;;;;;5.85;4.45;;;1.20;99.90;;;;;;5051556;28;20222;-63
2022/02/13 04:36:18;;;;;;;8.30;4.60;;;1.10;99.90;;;;;;5052251;28;20239;-64
2022/02/13 04:38:45;;;;;;;9.38;5.03;;;1.10;99.90;;;;;;5051421;28;20201;-64
2022/02/13 04:41:12;;;;;;;7.03;5.18;;;1.00;99.90;;;;;;5051417;28;20213;-64
2022/02/13 04:43:40;;;;;;;8.90;4.97;;;1.00;99.90;;;;;;5050476;28;20233;-64
2022/02/13 04:46:07;;;;;;;8.75;6.05;;;1.00;99.90;;;;;;5050481;28;20201;-63
2022/02/13 04:48:35;;;;;;;6.53;5.43;;;1.00;99.90;;;;;;5050133;28;20588;-63
2022/02/13 04:51:02;;;;;;;7.70;5.13;;;1.00;99.90;;;;;;5049799;28;20205;-64
2022/02/13 04:53:29;;;;;;;9.15;5.15;;;1.00;99.90;;;;;;5049932;28;20226;-63
2022/02/13 04:55:57;;;;;;;9.48;4.50;;;1.00;99.90;;;;;;5049998;28;20209;-63
2022/02/13 04:58:24;;;;;;;6.90;4.70;;;1.00;99.90;;;;;;5049638;28;20198;-64
2022/02/13 05:00:52;;;;;;;9.20;5.95;;;1.00;99.90;;;;;;5049712;28;20213;-63
2022/02/13 05:03:19;;;;;;;5.93;4.70;;;1.00;99.90;;;;;;5049403;28;20233;-62
2022/02/13 05:05:47;;;;;;;7.63;5.10;;;1.00;99.90;;;;;;5049923;28;20213;-63
2022/02/13 05:08:14;;;;;;;7.85;6.32;;;1.00;99.90;;;;;;5049358;28;20221;-62
2022/02/13 05:10:41;;;;;;;5.72;5.13;;;1.00;99.90;;;;;;5050041;28;20210;-63
2022/02/13 05:13:08;;;;;;;6.97;5.50;;;1.00;99.90;;;;;;5049916;28;20644;-62
2022/02/13 05:15:35;;;;;;;7.35;5.57;;;1.00;99.90;;;;;;5049390;28;20205;-62
2022/02/13 05:18:03;;;;;;;6.60;4.80;;;1.10;99.90;;;;;;5049206;28;20194;-62
2022/02/13 05:20:30;;;;;;;9.18;5.25;;;1.10;99.90;;;;;;5036766;28;20221;-63
2022/02/13 05:22:58;;;;;;;10.00;5.90;;;1.10;99.90;;;;;;5035725;28;20230;-63
2022/02/13 05:25:25;;;;;;;6.90;5.32;;;1.10;99.90;;;;;;5036256;28;20198;-62
2022/02/13 05:27:52;;;;;;;7.10;4.80;;;1.10;99.90;;;;;;5035910;28;20214;-64
2022/02/13 05:30:19;;;;;;;6.50;5.43;;;1.10;99.90;;;;;;5035785;28;20209;-64
2022/02/13 05:32:46;;;;;;;6.00;4.60;;;1.10;99.90;;;;;;5035779;28;20225;-64
2022/02/13 05:35:15;;;;;;;5.25;4.75;;;1.10;99.90;;;;;;5036044;28;20199;-64
2022/02/13 05:37:42;;;;;;;9.60;5.22;;;1.10;99.90;;;;;;5035965;28;20210;-64
2022/02/13 05:40:11;;;;;;;6.90;5.20;;;1.00;99.90;;;;;;5035882;28;20207;-63
2022/02/13 05:42:38;;;;;;;9.02;5.50;;;1.10;99.90;;;;;;5035799;28;20226;-64
2022/02/13 05:45:06;;;;;;;7.40;4.47;;;1.10;99.90;;;;;;5035890;28;20208;-63
2022/02/13 05:47:35;;;;;;;8.00;5.18;;;1.10;99.90;;;;;;5035662;28;20206;-64
2022/02/13 05:50:02;;;;;;;6.80;5.38;;;1.10;99.90;;;;;;5035714;28;20203;-64
2022/02/13 05:52:31;;;;;;;9.63;5.30;;;1.10;99.90;;;;;;5035301;28;20708;-64
2022/02/13 05:54:58;;;;;;;9.50;5.78;;;1.10;99.90;;;;;;5035209;28;20206;-64
2022/02/13 05:57:25;;;;;;;6.65;5.28;;;1.10;99.90;;;;;;5035207;28;20205;-64
2022/02/13 05:59:52;;;;;;;7.55;5.03;;;1.10;99.90;;;;;;5035389;28;20198;-64
2022/02/13 06:02:19;;;;;;;6.38;4.88;;;1.00;99.90;;;;;;5035334;28;20234;-64
2022/02/13 06:04:46;;;;;;;7.55;5.05;;;1.00;99.90;;;;;;5035239;28;20213;-63
2022/02/13 06:07:13;;;;;;;6.85;5.30;;;1.00;99.90;;;;;;5035058;28;20674;-63
2022/02/13 06:09:42;;;;;;;7.68;4.88;;;1.00;99.90;;;;;;5034916;28;20222;-62
2022/02/13 06:12:10;;;;;;;6.60;5.00;;;0.90;99.90;;;;;;5035343;28;20231;-62
2022/02/13 06:14:37;;;;;;;8.38;5.30;;;0.90;99.90;;;;;;5034880;28;20198;-64
2022/02/13 06:17:05;;;;;;;8.45;5.55;;;0.90;99.90;;;;;;5034965;28;20200;-63
2022/02/13 06:19:32;;;;;;;7.80;5.25;;;0.90;99.90;;;;;;5035124;28;20206;-64
2022/02/13 06:21:59;;;;;;;5.93;5.32;;;0.80;99.90;;;;;;5034750;28;20714;-63
2022/02/13 06:24:26;;;;;;;6.72;5.07;;;0.80;99.90;;;;;;5034712;28;20195;-63
2022/02/13 06:26:54;;;;;;;7.80;6.30;;;0.80;99.90;;;;;;5034895;28;20207;-64
2022/02/13 06:29:22;;;;;;;10.65;5.50;;;0.80;99.90;;;;;;5035903;28;20229;-64
2022/02/13 06:31:49;;;;;;;5.68;4.68;;;0.70;99.90;;;;;;5033516;28;20237;-64
2022/02/13 06:34:16;;;;;;;6.03;5.03;;;0.70;99.90;;;;;;5034796;28;20206;-63
2022/02/13 06:36:44;;;;;;;9.27;5.85;;;0.70;99.90;;;;;;5034761;28;20206;-63
2022/02/13 06:39:11;;;;;;;9.23;5.40;;;0.70;99.90;;;;;;5034452;28;20580;-63
2022/02/13 06:41:38;;;;;;;13.77;6.72;;;0.70;99.90;;;;;;5034639;28;20211;-64
2022/02/13 06:44:07;;;;;;;7.72;5.65;;;0.60;99.90;;;;;;5034657;28;20203;-63
2022/02/13 06:46:34;;;;;;;11.02;5.25;;;0.60;99.90;;;;;;5034550;28;20653;-63
2022/02/13 06:49:01;;;;;;;8.27;5.78;;;0.60;99.90;;;;;;5034390;28;20225;-61
2022/02/13 06:51:29;;;;;;;12.65;5.85;;;0.60;99.90;;;;;;5035110;28;20211;-63
2022/02/13 06:53:56;;;;;;;14.68;6.15;;;0.70;99.90;;;;;;5034656;28;20310;-63
2022/02/13 06:56:23;;;;;;;6.55;4.55;;;0.60;99.90;;;;;;5034456;28;20214;-63
2022/02/13 06:58:50;;;;;;;8.70;5.03;;;0.60;99.90;;;;;;5034085;28;20199;-63
2022/02/13 07:01:19;;;;;;;8.43;5.80;;;0.60;99.90;;;;;;5034014;28;20198;-62
2022/02/13 07:03:46;;;;;;;7.97;5.65;;;0.60;99.90;;;;;;5033890;28;20747;-63
2022/02/13 07:06:13;;;;;;;8.30;5.93;;;0.60;99.90;;;;;;5033910;28;20209;-63
2022/02/13 07:08:40;;;;;;;7.82;5.45;;;0.70;99.90;;;;;;5033762;28;20713;-63
2022/02/13 07:11:08;;;;;;;8.52;5.55;;;0.70;99.90;;;;;;5034561;28;20203;-63
2022/02/13 07:13:35;;;;;;;7.20;5.25;;;0.70;99.90;;;;;;5034341;28;20297;-62
2022/02/13 07:16:02;;;;;;;9.35;6.30;;;0.70;99.90;;;;;;5034307;28;20242;-62
2022/02/13 07:18:31;;;;;;;6.57;5.60;;;0.70;99.90;;;;;;5033917;28;20195;-62
2022/02/13 07:20:58;;;;;;;9.63;5.30;;;0.80;99.90;;;;;;5034194;28;20203;-62
2022/02/13 07:23:26;;;;;;;7.97;6.00;;;0.90;99.90;;;;;;5033752;28;20269;-62
2022/02/13 07:25:53;;;;;;;10.27;5.90;;;1.00;99.90;;;;;;5034086;28;20202;-62
2022/02/13 07:31:05;;;;;;;9.25;5.25;;;1.10;99.90;;;;;;5034281;28;20330;-62
2022/02/13 07:33:34;;;;;;;8.98;5.40;;;1.30;99.90;;;;;;5033736;28;20628;-63
2022/02/13 07:36:01;;;;;;;11.00;6.70;;;1.40;99.90;;;;;;5034178;28;20240;-64
2022/02/13 07:38:28;;;;;;;8.10;6.00;;;1.50;99.90;;;;;;5033932;28;20211;-64
2022/02/13 07:40:55;;;;;;;7.35;5.47;;;1.70;99.90;;;;;;5033990;28;20202;-63
2022/02/13 07:43:22;;;;;;;7.95;5.60;;;1.70;99.90;;;;;;5033217;28;20287;-63
2022/02/13 07:45:49;;;;;;;9.25;6.80;;;1.90;99.90;;;;;;5033906;28;20202;-64
2022/02/13 07:48:16;;;;;;;9.25;5.63;;;2.00;99.90;;;;;;5033684;28;20226;-64
2022/02/13 07:50:45;;;;;;;8.20;5.60;;;2.00;99.80;;;;;;5033692;28;20210;-63
2022/02/13 07:53:12;;;;;;;11.82;6.35;;;2.20;99.60;;;;;;5033229;28;20248;-64
2022/02/13 07:55:39;;;;;;;7.95;6.20;;;2.20;99.20;;;;;;5033466;28;20209;-63
2022/02/13 07:58:07;;;;;;;9.63;5.57;;;2.40;98.90;;;;;;5033687;28;20213;-63
2022/02/13 08:00:34;;;;;;;8.05;6.03;;;2.40;98.70;;;;;;5033470;28;20202;-64
2022/02/13 08:03:01;;;;;;;6.82;5.68;;;2.60;98.40;;;;;;5033446;28;20305;-65
2022/02/13 08:05:28;;;;;;;6.72;5.30;;;2.70;98.00;;;;;;5034370;28;20245;-64
2022/02/13 08:07:56;;;;;;;8.60;5.20;;;2.80;97.60;;;;;;5033018;28;20693;-64
2022/02/13 08:10:23;;;;;;;7.25;5.45;;;2.80;96.90;;;;;;5033320;28;20233;-64
2022/02/13 08:12:51;;;;;;;7.43;5.50;;;2.90;96.30;;;;;;5033218;28;20225;-64
2022/02/13 08:15:18;;;;;;;8.55;5.25;;;3.00;95.50;;;;;;5033348;28;20575;-64
2022/02/13 08:17:45;;;;;;;8.20;5.78;;;3.00;94.90;;;;;;5033410;28;20229;-63
2022/02/13 08:20:14;;;;;;;9.77;6.05;;;3.10;94.70;;;;;;5033382;28;20539;-63
2022/02/13 08:22:41;;;;;;;8.45;5.00;;;3.20;94.10;;;;;;5032864;28;20628;-64
2022/02/13 08:25:12;;;;;;;11.27;6.60;;;3.40;92.90;;;;;;5033226;28;20202;-65
2022/02/13 08:27:39;;;;;;;7.47;6.00;;;3.50;92.70;;;;;;5032883;28;20635;-64
2022/02/13 08:30:07;;;;;;;5.47;4.95;;;3.70;92.20;;;;;;5033162;28;20226;-64
2022/02/13 08:32:34;;;;;;;8.45;5.63;;;3.90;91.60;;;;;;5033316;28;20245;-64
2022/02/13 08:35:01;;;;;;;6.90;5.15;;;4.00;91.20;;;;;;5033266;28;20202;-64
2022/02/13 08:37:28;;;;;;;8.93;6.68;;;4.20;91.10;;;;;;5033115;28;20686;-63
2022/02/13 08:39:55;;;;;;;9.75;6.35;;;4.40;90.70;;;;;;5033332;28;20210;-64
2022/02/13 08:42:23;;;;;;;9.65;6.43;;;4.60;90.30;;;;;;5033652;28;20226;-65
2022/02/13 08:44:51;;;;;;;9.80;6.60;;;4.70;89.80;;;;;;5033413;28;20601;-64
2022/02/13 08:47:18;;;;;;;6.65;5.40;;;4.80;89.60;;;;;;5033219;28;20206;-63
2022/02/13 08:49:47;;;;;;;6.82;5.75;;;4.80;89.40;;;;;;5033205;28;20221;-64
2022/02/13 08:52:14;;;;;;;8.65;5.50;;;4.80;89.30;;;;;;5032853;28;20226;-63
2022/02/13 08:54:41;;;;;;;7.47;6.18;;;4.70;89.30;;;;;;5034528;28;20697;-64
2022/02/13 08:57:08;;;;;;;14.38;7.47;;;4.70;89.50;;;;;;5036856;28;20214;-64
2022/02/13 08:59:37;;;;;;;8.48;6.25;;;4.60;90.00;;;;;;5036851;28;20201;-65
2022/02/13 09:02:04;;;;;;;6.78;5.40;;;4.60;89.40;;;;;;5036670;28;20226;-64
2022/02/13 09:04:31;;;;;;;7.72;6.13;;;4.60;89.20;;;;;;5037353;28;20567;-64
2022/02/13 09:07:00;;;;;;;7.05;5.50;;;4.60;89.10;;;;;;5037136;28;20202;-63
2022/02/13 09:09:27;;;;;;;7.20;5.38;;;4.60;88.60;;;;;;5037651;28;20654;-65
2022/02/13 09:11:54;;;;;;;8.75;6.47;;;4.60;88.30;;;;;;5036712;28;20202;-64
2022/02/13 09:14:21;;;;;;;6.38;5.13;;;4.50;87.70;;;;;;5036923;28;20210;-63
2022/02/13 09:16:50;;;;;;;7.13;5.88;;;4.60;87.30;;;;;;5036827;28;20210;-64
2022/02/13 09:19:19;;;;;;;8.82;6.28;;;4.70;87.30;;;;;;5036690;28;20225;-64
2022/02/13 09:21:51;;;;;;;8.57;5.55;;;4.80;86.80;;;;;;5036425;28;20279;-64
2022/02/13 09:24:18;;;;;;;8.40;5.88;;;4.80;85.90;;;;;;5036391;28;20190;-63
2022/02/13 09:26:45;;;;;;;9.30;6.03;;;4.90;85.70;;;;;;5035951;28;20237;-65
2022/02/13 09:29:13;;;;;;;7.85;5.07;;;5.00;85.10;;;;;;5036486;28;20230;-65
2022/02/13 09:31:40;;;;;;;7.63;5.70;;;5.10;84.80;;;;;;5036115;28;20206;-62
2022/02/13 09:34:08;;;;;;;6.47;5.38;;;5.20;84.30;;;;;;5036940;28;20205;-59
2022/02/13 09:36:35;;;;;;;9.82;6.30;;;5.40;84.00;;;;;;5035735;28;20667;-58
2022/02/13 09:39:03;;;;;;;11.15;6.07;;;5.50;83.40;;;;;;5036134;28;20204;-59
2022/02/13 09:41:30;;;;;;;7.50;6.07;;;5.50;82.60;;;;;;5035860;28;20214;-60
2022/02/13 09:43:57;;;;;;;7.63;5.80;;;5.60;81.30;;;;;;5035986;28;20721;-62
2022/02/13 09:46:25;;;;;;;9.35;5.80;;;5.60;80.30;;;;;;5035829;28;20206;-62
2022/02/13 09:48:53;;;;;;;6.00;5.40;;;5.70;80.00;;;;;;5035880;28;20198;-62
2022/02/13 09:51:21;;;;;;;7.50;5.30;;;5.70;79.50;;;;;;5035847;28;20585;-62
2022/02/13 09:53:48;;;;;;;8.82;5.78;;;5.70;79.30;;;;;;5035989;28;20226;-63
2022/02/13 09:56:15;;;;;;;8.73;5.55;;;5.80;79.00;;;;;;5035786;28;20675;-63
2022/02/13 09:58:42;;;;;;;5.68;5.03;;;5.90;77.80;;;;;;5035638;28;20206;-63
2022/02/13 10:01:11;;;;;;;6.35;5.60;;;5.90;77.10;;;;;;5035403;28;20198;-59
2022/02/13 10:03:40;;;;;;;8.35;6.20;;;6.00;76.40;;;;;;5035648;28;20267;-61
2022/02/13 10:06:23;;;;;;;7.78;6.20;;;6.00;75.80;;;;;;5034765;28;20453;-60
2022/02/13 10:08:51;;;;;;;6.70;5.80;;;6.10;72.80;;;;;;5034624;28;20917;-57
2022/02/13 10:11:19;;;;;;;9.65;6.75;;;6.20;71.80;;;;;;5035637;28;20225;-61
2022/02/13 10:13:51;;;;;;;6.85;5.60;;;6.30;72.10;;;;;;5034812;28;20793;-63
2022/02/13 10:16:21;;;;;;;6.07;5.47;;;6.40;71.60;;;;;;5034954;28;20187;-62
2022/02/13 10:18:57;;;;;;;8.23;6.70;;;6.40;71.00;;;;;;5035307;28;20206;-62
2022/02/13 10:21:47;;;;;;;5.70;5.05;;;6.50;70.20;;;;;;5035170;28;20225;-61
2022/02/13 10:24:24;;;;;;;8.80;6.15;;;6.60;69.50;;;;;;5046322;22;20325;-70
2022/02/13 10:27:04;;;;;;;6.68;5.30;;;6.70;69.00;;;;;;5035430;28;20193;-67
2022/02/13 10:29:32;;;;;;;6.88;6.18;;;6.90;68.70;;;;;;5035664;28;20202;-68
2022/02/13 10:32:15;;;;;;;9.25;5.68;;;7.00;67.90;;;;;;5035236;28;20255;-66
2022/02/13 10:34:57;;;;;;;9.43;5.15;;;7.10;67.00;;;;;;5035125;28;20226;-67
2022/02/13 10:37:55;;;;;;;5.50;4.80;;;7.20;66.40;;;;;;5035188;28;20186;-70
2022/02/13 10:40:24;;;;;;;6.45;5.35;;;7.20;65.60;;;;;;5001418;28;20206;-69
2022/02/13 10:43:01;;;;;;;7.07;5.35;;;7.30;65.30;;;;;;5034958;28;20213;-70
2022/02/13 10:45:29;;;;;;;6.47;5.28;;;7.40;65.30;;;;;;5035173;28;20182;-68
2022/02/13 10:47:58;;;;;;;6.85;5.40;;;7.50;64.50;;;;;;5034713;28;20195;-66
2022/02/13 10:50:26;;;;;;;5.63;5.03;;;7.50;63.00;;;;;;5034733;28;20222;-66
2022/02/13 10:52:58;;;;;;;7.57;5.20;;;7.50;62.50;;;;;;5034493;28;20566;-72
2022/02/13 10:55:26;;;;;;;6.32;4.93;;;7.60;62.70;;;;;;5034857;28;20186;-72
2022/02/13 10:57:54;;;;;;;5.28;4.75;;;7.60;62.10;;;;;;5034783;28;20202;-69
2022/02/13 11:00:21;;;;;;;6.72;4.75;;;7.60;62.00;;;;;;5034155;28;20713;-70
2022/02/13 11:02:50;;;;;;;8.80;4.75;;;7.60;60.70;;;;;;5034420;28;20217;-67
2022/02/13 11:05:21;;;;;;;8.38;5.00;;;7.50;58.50;;;;;;5034846;28;20198;-65
2022/02/13 11:07:50;;;;;;;4.90;4.38;;;7.40;58.70;;;;;;5034284;28;20639;-68
2022/02/13 11:10:24;;;;;;;8.73;5.18;;;7.50;58.60;;;;;;5034685;28;20229;-63
2022/02/13 11:12:53;;;;;;;7.80;7.00;;;7.50;58.30;;;;;;5034247;28;20191;-66
2022/02/13 11:15:22;;;;;;;6.75;5.40;;;7.70;58.20;;;;;;5034033;28;20728;-69
2022/02/13 11:17:51;;;;;;;8.65;5.25;;;7.70;57.60;;;;;;5033878;28;20218;-66
2022/02/13 11:20:20;;;;;;;6.00;5.15;;;7.90;57.50;;;;;;5034276;28;20198;-68
2022/02/13 11:22:53;;;;;;;7.72;4.95;;;8.00;57.10;;;;;;5034012;28;20202;-69
2022/02/13 11:25:49;;;;;;;4.43;4.03;;;8.00;56.80;;;;;;5033925;28;20286;-68
2022/02/13 11:28:16;;;;;;;5.20;4.70;;;8.10;55.80;;;;;;5034439;28;20201;-70
2022/02/13 11:30:45;;;;;;;4.45;4.05;;;8.20;55.30;;;;;;5033749;28;20313;-67
2022/02/13 11:33:35;;;;;;;6.18;4.20;;;8.30;54.40;;;;;;5033885;28;20249;-65
2022/02/13 11:36:04;;;;;;;5.53;4.28;;;8.40;54.10;;;;;;5033673;28;20681;-66
2022/02/13 11:38:57;;;;;;;6.45;5.05;;;8.40;53.10;;;;;;5034450;28;20202;-69
2022/02/13 11:42:03;;;;;;;5.97;4.20;;;8.50;53.00;;;;;;5034202;28;20187;-69
2022/02/13 11:44:42;;;;;;;6.03;4.18;;;8.60;52.70;;;;;;4973012;28;20601;-69
2022/02/13 11:47:11;;;;;;;5.07;4.10;;;8.70;52.40;;;;;;5028093;28;20209;-68
2022/02/13 11:50:24;;;;;;;7.30;4.10;;;8.70;52.20;;;;;;5033187;28;20597;-69
2022/02/13 11:53:08;;;;;;;5.05;4.22;;;8.80;51.80;;;;;;5033314;28;20635;-69
2022/02/13 11:55:36;;;;;;;5.68;5.18;;;8.80;51.70;;;;;;5033599;28;20194;-69
2022/02/13 11:58:11;;;;;;;5.60;4.30;;;8.80;51.70;;;;;;5033594;28;20209;-68
2022/02/13 12:00:46;;;;;;;6.25;4.75;;;8.80;51.60;;;;;;5033321;28;20543;-70
2022/02/13 12:03:16;;;;;;;5.95;5.35;;;8.80;51.50;;;;;;5033498;28;20225;-66
2022/02/13 12:05:44;;;;;;;5.70;4.53;;;8.80;51.30;;;;;;5037415;28;20212;-68
2022/02/13 12:08:11;;;;;;;6.38;5.75;;;8.80;51.10;;;;;;5044257;28;20199;-68
2022/02/13 12:10:42;;;;;;;5.65;5.10;;;8.70;50.70;;;;;;5043275;28;20218;-67
2022/02/13 12:13:13;;;;;;;5.40;4.88;;;8.70;50.80;;;;;;5043154;28;20237;-69
2022/02/13 12:15:49;;;;;;;6.05;4.95;;;8.80;50.90;;;;;;5036016;28;20667;-68
2022/02/13 12:18:18;;;;;;;6.47;4.57;;;8.80;50.80;;;;;;5033924;28;20229;-69
2022/02/13 12:20:46;;;;;;;5.97;3.90;;;8.80;50.40;;;;;;5033035;28;20205;-69
2022/02/13 12:23:15;;;;;;;5.10;4.60;;;8.80;50.50;;;;;;5033794;28;20222;-69
2022/02/13 12:25:45;;;;;;;5.20;4.63;;;8.90;51.00;;;;;;5033547;28;20193;-69
2022/02/13 12:28:14;;;;;;;4.80;4.40;;;8.90;50.40;;;;;;5034329;28;20218;-69
2022/02/13 12:30:48;;;;;;;6.15;4.57;;;9.00;50.40;;;;;;5036850;28;20249;-67
2022/02/13 12:33:18;;;;;;;6.65;5.60;;;9.10;50.30;;;;;;5038036;28;20218;-68
2022/02/13 12:35:46;;;;;;;6.68;4.90;;;9.10;50.40;;;;;;5037039;28;20666;-67
2022/02/13 12:38:14;;;;;;;9.98;6.28;;;9.10;50.50;;;;;;5037383;28;20206;-69
2022/02/13 12:40:44;;;;;;;6.07;4.40;;;9.20;50.60;;;;;;5037224;28;20202;-69
2022/02/13 12:43:16;;;;;;;6.43;5.68;;;9.20;50.60;;;;;;5037004;28;20262;-69
2022/02/13 12:45:45;;;;;;;9.45;4.55;;;9.20;50.60;;;;;;5038171;28;20619;-68
2022/02/13 12:48:14;;;;;;;6.65;5.15;;;9.20;50.50;;;;;;5038198;28;20207;-66
2022/02/13 12:50:44;;;;;;;6.43;5.50;;;9.20;50.40;;;;;;5037725;28;20309;-69
2022/02/13 12:53:13;;;;;;;6.00;4.37;;;9.20;50.50;;;;;;5037513;28;20229;-67
2022/02/13 12:55:42;;;;;;;7.97;5.10;;;9.20;50.50;;;;;;5037895;28;20456;-66
2022/02/13 12:58:10;;;;;;;6.47;4.70;;;9.20;50.10;;;;;;5037132;28;20974;-67
2022/02/13 13:00:45;;;;;;;5.57;4.65;;;9.20;50.20;;;;;;5037068;28;20202;-67
2022/02/13 13:03:14;;;;;;;5.78;4.30;;;9.20;50.30;;;;;;5036918;28;20224;-66
2022/02/13 13:05:46;;;;;;;4.70;4.20;;;9.20;50.00;;;;;;5037171;28;20292;-67
2022/02/13 13:08:15;;;;;;;5.63;4.40;;;9.20;50.40;;;;;;5037132;28;20290;-67
2022/02/13 13:10:48;;;;;;;6.57;4.50;;;9.20;50.40;;;;;;5037360;28;20488;-66